Quseir, Egypt
Current Conditions -  °F | °C
As of 5:00 PM on Saturday 25 Oct 2014 (Local Time) from HEMA Reporting Station
Clear Clear  
Wind Chill: 84°   Ceiling: Unl
Heat Index: 84°   Visibility: 6mi
Dew Point: 45°   Wind: 14mph
Humidity: 25%   Direction: 340°NNW
Pressure: 29.91"   Gusts: NA
Location:  26.11°N, 34.28°E
Report Text: HEMA 251500Z 34012KT CAVOK 29/07 Q1013 NOSIG
Loading
Personal Weather Stations






























Interactive Weather Map
Tropical Storm Tracking
New forecast layout! Learn more

10-Day Weather Forecast

Advertisements
Track Severe Weather on mobile